sensor_id;sensor_type;location;lat;lon;timestamp;pressure;altitude;pressure_sealevel;temperature;humidity
61573;BME280;47465;43.094;12.434;2022-09-23T00:01:28;99052.41;;;10.77;61.05
61573;BME280;47465;43.094;12.434;2022-09-23T00:03:54;99041.00;;;10.72;61.14
61573;BME280;47465;43.094;12.434;2022-09-23T00:06:23;99064.50;;;10.90;60.71
61573;BME280;47465;43.094;12.434;2022-09-23T00:08:50;99067.25;;;10.87;61.35
61573;BME280;47465;43.094;12.434;2022-09-23T00:11:19;99056.03;;;10.73;61.59
61573;BME280;47465;43.094;12.434;2022-09-23T00:13:47;99069.31;;;10.75;61.87
61573;BME280;47465;43.094;12.434;2022-09-23T00:16:15;99059.00;;;10.61;62.22
61573;BME280;47465;43.094;12.434;2022-09-23T00:18:41;99046.88;;;10.47;62.35
61573;BME280;47465;43.094;12.434;2022-09-23T00:21:10;99055.50;;;10.59;62.07
61573;BME280;47465;43.094;12.434;2022-09-23T00:23:39;99092.03;;;10.89;61.45
61573;BME280;47465;43.094;12.434;2022-09-23T00:26:10;99049.09;;;10.67;61.38
61573;BME280;47465;43.094;12.434;2022-09-23T00:28:37;99063.84;;;10.81;61.14
61573;BME280;47465;43.094;12.434;2022-09-23T00:31:04;99078.03;;;10.80;61.55
61573;BME280;47465;43.094;12.434;2022-09-23T00:33:31;99045.81;;;10.56;61.79
61573;BME280;47465;43.094;12.434;2022-09-23T00:35:58;99041.66;;;10.43;62.14
61573;BME280;47465;43.094;12.434;2022-09-23T00:38:24;99034.59;;;10.42;62.16
61573;BME280;47465;43.094;12.434;2022-09-23T00:40:51;99042.44;;;10.48;61.87
61573;BME280;47465;43.094;12.434;2022-09-23T00:43:17;99052.03;;;10.54;61.85
61573;BME280;47465;43.094;12.434;2022-09-23T00:45:46;99045.03;;;10.51;61.64
61573;BME280;47465;43.094;12.434;2022-09-23T00:48:16;99042.97;;;10.62;61.35
61573;BME280;47465;43.094;12.434;2022-09-23T00:50:44;99068.00;;;10.93;60.74
61573;BME280;47465;43.094;12.434;2022-09-23T00:53:14;99044.41;;;10.77;60.54
61573;BME280;47465;43.094;12.434;2022-09-23T00:55:44;99032.69;;;10.86;60.18
61573;BME280;47465;43.094;12.434;2022-09-23T00:58:15;99048.34;;;11.00;59.66
61573;BME280;47465;43.094;12.434;2022-09-23T01:00:42;99050.78;;;11.07;59.36
61573;BME280;47465;43.094;12.434;2022-09-23T01:03:10;99049.94;;;11.07;59.63
61573;BME280;47465;43.094;12.434;2022-09-23T01:05:36;99047.13;;;11.13;59.18
61573;BME280;47465;43.094;12.434;2022-09-23T01:08:05;99062.97;;;11.18;59.58
61573;BME280;47465;43.094;12.434;2022-09-23T01:10:45;99032.56;;;10.90;59.98
61573;BME280;47465;43.094;12.434;2022-09-23T01:13:21;99036.38;;;10.80;60.29
61573;BME280;47465;43.094;12.434;2022-09-23T01:15:53;99026.59;;;10.82;59.82
61573;BME280;47465;43.094;12.434;2022-09-23T01:18:29;99033.72;;;10.80;60.28
61573;BME280;47465;43.094;12.434;2022-09-23T01:21:09;99038.81;;;10.89;60.24
61573;BME280;47465;43.094;12.434;2022-09-23T01:24:06;99076.28;;;11.18;59.93
61573;BME280;47465;43.094;12.434;2022-09-23T01:30:01;99035.22;;;10.90;60.00
61573;BME280;47465;43.094;12.434;2022-09-23T01:32:42;99034.25;;;10.95;59.36
61573;BME280;47465;43.094;12.434;2022-09-23T01:35:22;99045.59;;;11.03;59.42
61573;BME280;47465;43.094;12.434;2022-09-23T01:37:57;99054.03;;;11.20;59.14
61573;BME280;47465;43.094;12.434;2022-09-23T01:40:30;99051.34;;;11.22;58.93
61573;BME280;47465;43.094;12.434;2022-09-23T01:43:04;99053.13;;;11.21;58.75
61573;BME280;47465;43.094;12.434;2022-09-23T01:45:34;99057.09;;;11.39;58.09
61573;BME280;47465;43.094;12.434;2022-09-23T01:48:06;99058.13;;;11.34;58.24
61573;BME280;47465;43.094;12.434;2022-09-23T01:50:41;99069.28;;;11.49;58.16
61573;BME280;47465;43.094;12.434;2022-09-23T01:53:49;99079.28;;;11.40;58.93
61573;BME280;47465;43.094;12.434;2022-09-23T01:56:20;99066.97;;;11.00;61.03
61573;BME280;47465;43.094;12.434;2022-09-23T01:58:49;99053.63;;;10.62;62.12
61573;BME280;47465;43.094;12.434;2022-09-23T02:01:20;99065.75;;;10.35;63.87
61573;BME280;47465;43.094;12.434;2022-09-23T02:03:51;99058.31;;;10.07;64.67
61573;BME280;47465;43.094;12.434;2022-09-23T02:06:22;99071.03;;;9.93;65.57
61573;BME280;47465;43.094;12.434;2022-09-23T02:08:53;99065.31;;;9.66;66.70
61573;BME280;47465;43.094;12.434;2022-09-23T02:11:23;99083.97;;;9.63;67.51
61573;BME280;47465;43.094;12.434;2022-09-23T02:13:52;99064.75;;;9.49;67.48
61573;BME280;47465;43.094;12.434;2022-09-23T02:16:24;99052.59;;;9.37;67.86
61573;BME280;47465;43.094;12.434;2022-09-23T02:18:55;99074.31;;;9.58;67.75
61573;BME280;47465;43.094;12.434;2022-09-23T02:21:24;99080.50;;;9.58;68.28
61573;BME280;47465;43.094;12.434;2022-09-23T02:23:58;99065.63;;;9.50;67.88
61573;BME280;47465;43.094;12.434;2022-09-23T02:26:30;99032.56;;;9.68;65.71
61573;BME280;47465;43.094;12.434;2022-09-23T02:29:06;99036.88;;;10.17;64.13
61573;BME280;47465;43.094;12.434;2022-09-23T02:31:38;99055.72;;;10.48;63.49
61573;BME280;47465;43.094;12.434;2022-09-23T02:34:15;99054.69;;;10.54;62.60
61573;BME280;47465;43.094;12.434;2022-09-23T02:36:49;99028.31;;;10.44;62.57
61573;BME280;47465;43.094;12.434;2022-09-23T02:39:22;99052.72;;;10.63;62.63
61573;BME280;47465;43.094;12.434;2022-09-23T02:41:57;99037.97;;;10.50;62.62
61573;BME280;47465;43.094;12.434;2022-09-23T02:44:25;99041.34;;;10.57;62.54
61573;BME280;47465;43.094;12.434;2022-09-23T02:46:53;99033.16;;;10.66;62.07
61573;BME280;47465;43.094;12.434;2022-09-23T02:49:20;99057.81;;;10.74;62.34
61573;BME280;47465;43.094;12.434;2022-09-23T02:51:48;99054.91;;;10.85;61.58
61573;BME280;47465;43.094;12.434;2022-09-23T02:54:17;99031.84;;;10.84;60.86
61573;BME280;47465;43.094;12.434;2022-09-23T02:56:44;99022.56;;;10.64;61.70
61573;BME280;47465;43.094;12.434;2022-09-23T02:59:12;99043.78;;;10.67;61.64
61573;BME280;47465;43.094;12.434;2022-09-23T03:01:47;99054.63;;;10.58;62.60
61573;BME280;47465;43.094;12.434;2022-09-23T03:04:20;99021.44;;;10.36;63.60
61573;BME280;47465;43.094;12.434;2022-09-23T03:06:56;99041.47;;;10.52;62.33
61573;BME280;47465;43.094;12.434;2022-09-23T03:09:28;99022.25;;;10.39;63.18
61573;BME280;47465;43.094;12.434;2022-09-23T03:12:12;99064.00;;;10.34;64.84
61573;BME280;47465;43.094;12.434;2022-09-23T03:14:43;99025.72;;;9.99;65.55
61573;BME280;47465;43.094;12.434;2022-09-23T03:17:19;99042.38;;;10.07;65.18
61573;BME280;47465;43.094;12.434;2022-09-23T03:19:51;99050.75;;;9.89;66.72
61573;BME280;47465;43.094;12.434;2022-09-23T03:22:23;99043.31;;;10.06;64.70
61573;BME280;47465;43.094;12.434;2022-09-23T03:24:51;99035.81;;;10.66;62.15
61573;BME280;47465;43.094;12.434;2022-09-23T03:27:24;99035.22;;;10.90;61.04
61573;BME280;47465;43.094;12.434;2022-09-23T03:29:52;99028.03;;;10.96;60.90
61573;BME280;47465;43.094;12.434;2022-09-23T03:32:23;99005.19;;;10.87;60.81
61573;BME280;47465;43.094;12.434;2022-09-23T03:34:51;99010.25;;;10.98;60.44
61573;BME280;47465;43.094;12.434;2022-09-23T03:37:19;99040.03;;;11.12;60.58
61573;BME280;47465;43.094;12.434;2022-09-23T03:39:48;99038.44;;;11.05;60.81
61573;BME280;47465;43.094;12.434;2022-09-23T03:42:19;99004.66;;;10.71;61.43
61573;BME280;47465;43.094;12.434;2022-09-23T03:44:51;99046.19;;;10.78;62.17
61573;BME280;47465;43.094;12.434;2022-09-23T03:47:19;99015.72;;;10.54;62.72
61573;BME280;47465;43.094;12.434;2022-09-23T03:49:46;99021.53;;;10.31;63.79
61573;BME280;47465;43.094;12.434;2022-09-23T03:52:13;99052.59;;;10.27;65.11
61573;BME280;47465;43.094;12.434;2022-09-23T03:54:39;99043.44;;;9.99;65.72
61573;BME280;47465;43.094;12.434;2022-09-23T03:57:05;99060.41;;;9.93;66.29
61573;BME280;47465;43.094;12.434;2022-09-23T03:59:32;99028.88;;;9.73;66.53
61573;BME280;47465;43.094;12.434;2022-09-23T04:01:59;99024.47;;;9.74;66.49
61573;BME280;47465;43.094;12.434;2022-09-23T04:04:26;99026.84;;;9.89;65.56
61573;BME280;47465;43.094;12.434;2022-09-23T04:06:52;99054.06;;;9.99;66.08
61573;BME280;47465;43.094;12.434;2022-09-23T04:09:18;99031.19;;;9.93;65.77
61573;BME280;47465;43.094;12.434;2022-09-23T04:11:44;99038.00;;;10.05;65.22
61573;BME280;47465;43.094;12.434;2022-09-23T04:14:10;99006.44;;;9.90;65.27
61573;BME280;47465;43.094;12.434;2022-09-23T04:16:36;99011.00;;;9.83;65.77
61573;BME280;47465;43.094;12.434;2022-09-23T04:19:04;99017.31;;;9.77;65.80
61573;BME280;47465;43.094;12.434;2022-09-23T04:21:29;99037.44;;;9.89;66.08
61573;BME280;47465;43.094;12.434;2022-09-23T04:23:55;99009.47;;;9.71;66.67
61573;BME280;47465;43.094;12.434;2022-09-23T04:26:21;99028.75;;;9.81;66.41
61573;BME280;47465;43.094;12.434;2022-09-23T04:28:47;99033.25;;;9.76;66.70
61573;BME280;47465;43.094;12.434;2022-09-23T04:31:13;99050.97;;;9.77;67.38
61573;BME280;47465;43.094;12.434;2022-09-23T04:33:39;99063.50;;;9.70;67.69
61573;BME280;47465;43.094;12.434;2022-09-23T04:36:07;99061.88;;;9.63;68.80
61573;BME280;47465;43.094;12.434;2022-09-23T04:38:33;99038.28;;;9.46;68.94
61573;BME280;47465;43.094;12.434;2022-09-23T04:40:59;99035.16;;;9.22;70.10
61573;BME280;47465;43.094;12.434;2022-09-23T04:43:25;99062.28;;;9.38;69.42
61573;BME280;47465;43.094;12.434;2022-09-23T04:45:57;99047.28;;;9.37;68.92
61573;BME280;47465;43.094;12.434;2022-09-23T04:48:24;99049.94;;;9.36;68.95
61573;BME280;47465;43.094;12.434;2022-09-23T04:50:49;99028.22;;;9.14;69.55
61573;BME280;47465;43.094;12.434;2022-09-23T04:53:17;99057.25;;;9.23;70.32
61573;BME280;47465;43.094;12.434;2022-09-23T04:55:43;99081.88;;;9.31;70.60
61573;BME280;47465;43.094;12.434;2022-09-23T04:58:10;99059.03;;;9.22;70.26
61573;BME280;47465;43.094;12.434;2022-09-23T05:00:36;99065.22;;;9.21;69.83
61573;BME280;47465;43.094;12.434;2022-09-23T05:03:02;99072.28;;;9.22;70.68
61573;BME280;47465;43.094;12.434;2022-09-23T05:05:29;99073.25;;;9.17;71.30
61573;BME280;47465;43.094;12.434;2022-09-23T05:07:55;99049.78;;;8.94;71.93
61573;BME280;47465;43.094;12.434;2022-09-23T05:10:23;99067.34;;;9.01;72.37
61573;BME280;47465;43.094;12.434;2022-09-23T05:12:48;99061.34;;;8.88;73.11
61573;BME280;47465;43.094;12.434;2022-09-23T05:15:14;99075.53;;;8.86;73.05
61573;BME280;47465;43.094;12.434;2022-09-23T05:17:40;99047.69;;;8.57;73.82
61573;BME280;47465;43.094;12.434;2022-09-23T05:20:08;99065.41;;;8.53;74.84
61573;BME280;47465;43.094;12.434;2022-09-23T05:22:34;99067.22;;;8.50;75.41
61573;BME280;47465;43.094;12.434;2022-09-23T05:25:00;99089.19;;;8.59;75.31
61573;BME280;47465;43.094;12.434;2022-09-23T05:27:28;99062.88;;;8.44;75.84
61573;BME280;47465;43.094;12.434;2022-09-23T05:29:54;99068.19;;;8.42;76.21
61573;BME280;47465;43.094;12.434;2022-09-23T05:32:20;99093.66;;;8.54;76.14
61573;BME280;47465;43.094;12.434;2022-09-23T05:34:46;99097.19;;;8.55;76.19
61573;BME280;47465;43.094;12.434;2022-09-23T05:37:12;99067.44;;;8.33;76.40
61573;BME280;47465;43.094;12.434;2022-09-23T05:39:38;99082.41;;;8.32;77.42
61573;BME280;47465;43.094;12.434;2022-09-23T05:42:04;99097.38;;;8.38;77.34
61573;BME280;47465;43.094;12.434;2022-09-23T05:44:32;99081.47;;;8.38;77.63
61573;BME280;47465;43.094;12.434;2022-09-23T05:46:57;99074.47;;;8.32;77.61
61573;BME280;47465;43.094;12.434;2022-09-23T05:49:23;99071.03;;;8.27;78.13
61573;BME280;47465;43.094;12.434;2022-09-23T05:51:49;99079.69;;;8.38;78.09
61573;BME280;47465;43.094;12.434;2022-09-23T05:54:15;99086.69;;;8.46;78.39
61573;BME280;47465;43.094;12.434;2022-09-23T05:56:41;99070.78;;;8.46;78.27
61573;BME280;47465;43.094;12.434;2022-09-23T05:59:06;99053.25;;;8.35;78.88
61573;BME280;47465;43.094;12.434;2022-09-23T06:01:34;99085.66;;;8.59;78.75
61573;BME280;47465;43.094;12.434;2022-09-23T06:04:02;99099.50;;;8.79;78.21
61573;BME280;47465;43.094;12.434;2022-09-23T06:06:30;99071.25;;;8.75;78.56
61573;BME280;47465;43.094;12.434;2022-09-23T06:08:56;99106.88;;;9.18;77.61
61573;BME280;47465;43.094;12.434;2022-09-23T06:11:24;99077.75;;;9.13;77.52
61573;BME280;47465;43.094;12.434;2022-09-23T06:13:53;99073.94;;;9.30;78.08
61573;BME280;47465;43.094;12.434;2022-09-23T06:16:19;99085.94;;;9.52;75.93
61573;BME280;47465;43.094;12.434;2022-09-23T06:18:46;99099.63;;;9.77;74.70
61573;BME280;47465;43.094;12.434;2022-09-23T06:21:14;99106.44;;;9.92;74.24
61573;BME280;47465;43.094;12.434;2022-09-23T06:23:40;99075.50;;;9.90;73.30
61573;BME280;47465;43.094;12.434;2022-09-23T06:26:08;99095.44;;;10.12;73.00
61573;BME280;47465;43.094;12.434;2022-09-23T06:28:38;99108.44;;;10.26;72.78
61573;BME280;47465;43.094;12.434;2022-09-23T06:31:06;99078.41;;;10.21;72.87
61573;BME280;47465;43.094;12.434;2022-09-23T06:33:33;99110.63;;;10.51;72.02
61573;BME280;47465;43.094;12.434;2022-09-23T06:36:02;99103.50;;;10.53;71.53
61573;BME280;47465;43.094;12.434;2022-09-23T06:38:29;99069.88;;;10.50;70.60
61573;BME280;47465;43.094;12.434;2022-09-23T06:40:56;99088.88;;;10.72;70.88
61573;BME280;47465;43.094;12.434;2022-09-23T06:43:24;99086.00;;;10.81;70.45
61573;BME280;47465;43.094;12.434;2022-09-23T06:45:51;99095.31;;;11.01;69.72
61573;BME280;47465;43.094;12.434;2022-09-23T06:48:17;99085.38;;;11.07;69.32
61573;BME280;47465;43.094;12.434;2022-09-23T06:50:43;99092.09;;;11.24;69.33
61573;BME280;47465;43.094;12.434;2022-09-23T06:53:10;99090.13;;;11.32;68.45
61573;BME280;47465;43.094;12.434;2022-09-23T06:55:37;99099.69;;;11.41;69.15
61573;BME280;47465;43.094;12.434;2022-09-23T06:58:03;99061.72;;;11.33;68.51
61573;BME280;47465;43.094;12.434;2022-09-23T07:00:29;99087.38;;;11.69;68.40
61573;BME280;47465;43.094;12.434;2022-09-23T07:03:02;99086.97;;;11.85;67.52
61573;BME280;47465;43.094;12.434;2022-09-23T07:12:25;99055.34;;;12.37;65.21
61573;BME280;47465;43.094;12.434;2022-09-23T07:14:51;99060.06;;;12.57;65.18
61573;BME280;47465;43.094;12.434;2022-09-23T07:18:04;99097.66;;;13.05;64.46
61573;BME280;47465;43.094;12.434;2022-09-23T07:20:41;99056.69;;;13.08;63.22
61573;BME280;47465;43.094;12.434;2022-09-23T07:23:33;99042.66;;;13.29;62.57
61573;BME280;47465;43.094;12.434;2022-09-23T07:26:18;99054.34;;;13.52;60.93
61573;BME280;47465;43.094;12.434;2022-09-23T07:29:00;99085.16;;;14.12;58.42
61573;BME280;47465;43.094;12.434;2022-09-23T07:34:53;99041.25;;;14.18;56.81
61573;BME280;47465;43.094;12.434;2022-09-23T07:37:49;99059.44;;;14.57;56.65
61573;BME280;47465;43.094;12.434;2022-09-23T07:40:37;99040.19;;;14.71;55.55
61573;BME280;47465;43.094;12.434;2022-09-23T07:43:19;99050.69;;;14.75;54.83
61573;BME280;47465;43.094;12.434;2022-09-23T07:46:10;99049.50;;;14.61;54.91
61573;BME280;47465;43.094;12.434;2022-09-23T07:48:49;99045.09;;;14.82;55.11
61573;BME280;47465;43.094;12.434;2022-09-23T07:51:29;99046.97;;;15.02;54.83
61573;BME280;47465;43.094;12.434;2022-09-23T07:54:20;99070.88;;;15.28;54.78
61573;BME280;47465;43.094;12.434;2022-09-23T07:57:04;99052.47;;;14.98;53.94
61573;BME280;47465;43.094;12.434;2022-09-23T07:59:48;99052.31;;;15.24;53.43
61573;BME280;47465;43.094;12.434;2022-09-23T08:02:18;99059.50;;;15.23;53.31
61573;BME280;47465;43.094;12.434;2022-09-23T08:04:44;99070.13;;;15.47;53.33
61573;BME280;47465;43.094;12.434;2022-09-23T08:07:11;99074.25;;;15.76;53.26
61573;BME280;47465;43.094;12.434;2022-09-23T08:09:42;99059.47;;;15.88;51.71
61573;BME280;47465;43.094;12.434;2022-09-23T08:12:21;99055.00;;;15.87;52.12
61573;BME280;47465;43.094;12.434;2022-09-23T08:14:47;99069.50;;;16.03;50.92
61573;BME280;47465;43.094;12.434;2022-09-23T08:17:18;99054.47;;;15.99;51.53
61573;BME280;47465;43.094;12.434;2022-09-23T08:19:47;99052.69;;;15.79;51.47
61573;BME280;47465;43.094;12.434;2022-09-23T08:24:55;99077.09;;;16.33;50.71
61573;BME280;47465;43.094;12.434;2022-09-23T08:27:23;99058.84;;;16.01;50.84
61573;BME280;47465;43.094;12.434;2022-09-23T08:29:49;99074.50;;;16.31;50.90
61573;BME280;47465;43.094;12.434;2022-09-23T08:32:19;99070.00;;;16.32;50.76
61573;BME280;47465;43.094;12.434;2022-09-23T08:34:49;99080.31;;;16.60;49.71
61573;BME280;47465;43.094;12.434;2022-09-23T08:37:17;99064.56;;;16.52;50.37
61573;BME280;47465;43.094;12.434;2022-09-23T08:39:43;99051.53;;;16.63;50.19
61573;BME280;47465;43.094;12.434;2022-09-23T08:42:24;99065.97;;;16.80;49.86
61573;BME280;47465;43.094;12.434;2022-09-23T08:45:03;99080.88;;;17.23;48.65
61573;BME280;47465;43.094;12.434;2022-09-23T08:47:46;99072.81;;;17.23;47.70
61573;BME280;47465;43.094;12.434;2022-09-23T08:50:17;99075.50;;;17.23;48.43
61573;BME280;47465;43.094;12.434;2022-09-23T08:52:58;99056.38;;;16.93;48.70
61573;BME280;47465;43.094;12.434;2022-09-23T08:55:32;99079.75;;;17.10;49.61
61573;BME280;47465;43.094;12.434;2022-09-23T08:58:15;99056.59;;;17.44;48.08
61573;BME280;47465;43.094;12.434;2022-09-23T09:00:58;99060.06;;;17.46;47.53
61573;BME280;47465;43.094;12.434;2022-09-23T09:03:49;99065.34;;;17.48;47.48
61573;BME280;47465;43.094;12.434;2022-09-23T09:06:49;99047.50;;;17.64;48.11
61573;BME280;47465;43.094;12.434;2022-09-23T09:09:22;99037.66;;;17.45;47.42
61573;BME280;47465;43.094;12.434;2022-09-23T09:12:17;99054.28;;;17.71;47.70
61573;BME280;47465;43.094;12.434;2022-09-23T09:14:57;99028.19;;;17.56;47.10
61573;BME280;47465;43.094;12.434;2022-09-23T09:17:32;99054.78;;;17.79;46.02
61573;BME280;47465;43.094;12.434;2022-09-23T09:20:05;99038.72;;;17.95;46.69
61573;BME280;47465;43.094;12.434;2022-09-23T09:22:53;99040.22;;;17.66;46.34
61573;BME280;47465;43.094;12.434;2022-09-23T09:25:29;99051.59;;;18.06;46.74
61573;BME280;47465;43.094;12.434;2022-09-23T09:27:58;99067.47;;;18.28;45.39
61573;BME280;47465;43.094;12.434;2022-09-23T09:30:27;99056.97;;;18.57;45.33
61573;BME280;47465;43.094;12.434;2022-09-23T09:33:01;99026.34;;;18.58;43.31
61573;BME280;47465;43.094;12.434;2022-09-23T09:38:33;99028.44;;;18.37;43.43
61573;BME280;47465;43.094;12.434;2022-09-23T09:41:13;99020.03;;;18.59;42.38
61573;BME280;47465;43.094;12.434;2022-09-23T09:43:46;99060.22;;;18.79;42.58
61573;BME280;47465;43.094;12.434;2022-09-23T09:46:48;99046.53;;;18.66;41.42
61573;BME280;47465;43.094;12.434;2022-09-23T09:49:23;99033.06;;;18.66;42.80
61573;BME280;47465;43.094;12.434;2022-09-23T09:52:11;99054.66;;;18.49;41.61
61573;BME280;47465;43.094;12.434;2022-09-23T09:54:41;99024.44;;;18.60;43.49
61573;BME280;47465;43.094;12.434;2022-09-23T09:57:17;99051.50;;;19.06;41.71
61573;BME280;47465;43.094;12.434;2022-09-23T09:59:44;99011.44;;;18.52;42.35
61573;BME280;47465;43.094;12.434;2022-09-23T10:02:23;99031.88;;;18.88;40.93
61573;BME280;47465;43.094;12.434;2022-09-23T10:04:58;99011.56;;;18.65;40.76
61573;BME280;47465;43.094;12.434;2022-09-23T10:07:31;99011.13;;;18.41;40.43
61573;BME280;47465;43.094;12.434;2022-09-23T10:10:15;99037.84;;;18.77;40.10
61573;BME280;47465;43.094;12.434;2022-09-23T10:12:45;99025.03;;;18.82;41.55
61573;BME280;47465;43.094;12.434;2022-09-23T10:15:39;99038.31;;;18.85;41.01
61573;BME280;47465;43.094;12.434;2022-09-23T10:18:19;99034.69;;;18.69;41.13
61573;BME280;47465;43.094;12.434;2022-09-23T10:20:47;99006.25;;;18.81;42.24
61573;BME280;47465;43.094;12.434;2022-09-23T10:23:17;99009.94;;;19.10;37.88
61573;BME280;47465;43.094;12.434;2022-09-23T10:25:58;99042.41;;;19.55;37.19
61573;BME280;47465;43.094;12.434;2022-09-23T10:28:31;99027.47;;;19.33;36.60
61573;BME280;47465;43.094;12.434;2022-09-23T10:31:10;99015.19;;;19.43;35.79
61573;BME280;47465;43.094;12.434;2022-09-23T10:33:41;99026.75;;;19.15;37.40
61573;BME280;47465;43.094;12.434;2022-09-23T10:36:17;99025.97;;;19.13;38.41
61573;BME280;47465;43.094;12.434;2022-09-23T10:38:43;99044.81;;;19.13;38.30
61573;BME280;47465;43.094;12.434;2022-09-23T10:41:19;99010.06;;;19.08;37.62
61573;BME280;47465;43.094;12.434;2022-09-23T10:44:55;99021.34;;;18.99;37.09
61573;BME280;47465;43.094;12.434;2022-09-23T10:48:22;99019.44;;;19.01;38.01
61573;BME280;47465;43.094;12.434;2022-09-23T10:53:50;99011.06;;;19.22;34.46
61573;BME280;47465;43.094;12.434;2022-09-23T11:00:14;99007.69;;;19.18;35.88
61573;BME280;47465;43.094;12.434;2022-09-23T11:06:48;99041.91;;;19.62;35.28
61573;BME280;47465;43.094;12.434;2022-09-23T11:09:32;98993.44;;;19.00;35.66
61573;BME280;47465;43.094;12.434;2022-09-23T11:15:21;98991.28;;;19.37;35.61
61573;BME280;47465;43.094;12.434;2022-09-23T11:18:09;99026.22;;;19.69;36.00
61573;BME280;47465;43.094;12.434;2022-09-23T11:20:52;99005.13;;;19.61;35.89
61573;BME280;47465;43.094;12.434;2022-09-23T11:24:00;99013.50;;;19.87;35.09
61573;BME280;47465;43.094;12.434;2022-09-23T11:30:09;98980.75;;;19.63;33.98
61573;BME280;47465;43.094;12.434;2022-09-23T11:33:08;98984.59;;;19.59;33.55
61573;BME280;47465;43.094;12.434;2022-09-23T11:35:44;98974.25;;;19.37;35.19
61573;BME280;47465;43.094;12.434;2022-09-23T11:38:39;98985.91;;;19.52;34.51
61573;BME280;47465;43.094;12.434;2022-09-23T11:41:19;98983.38;;;19.34;34.89
61573;BME280;47465;43.094;12.434;2022-09-23T11:43:55;99007.91;;;19.60;34.61
61573;BME280;47465;43.094;12.434;2022-09-23T11:46:33;98963.97;;;19.43;34.05
61573;BME280;47465;43.094;12.434;2022-09-23T11:49:12;98969.63;;;19.39;35.35
61573;BME280;47465;43.094;12.434;2022-09-23T11:51:46;98977.28;;;19.61;36.26
61573;BME280;47465;43.094;12.434;2022-09-23T11:54:18;98961.28;;;19.58;34.27
61573;BME280;47465;43.094;12.434;2022-09-23T11:56:50;98965.09;;;19.39;33.52
61573;BME280;47465;43.094;12.434;2022-09-23T11:59:29;98956.25;;;19.52;34.03
61573;BME280;47465;43.094;12.434;2022-09-23T12:02:03;98947.50;;;19.62;36.13
61573;BME280;47465;43.094;12.434;2022-09-23T12:04:36;98943.63;;;19.82;35.05
61573;BME280;47465;43.094;12.434;2022-09-23T12:07:15;98976.78;;;20.13;34.60
61573;BME280;47465;43.094;12.434;2022-09-23T12:09:55;98970.25;;;20.17;35.49
61573;BME280;47465;43.094;12.434;2022-09-23T12:12:34;98952.78;;;20.08;33.61
61573;BME280;47465;43.094;12.434;2022-09-23T12:15:08;98958.84;;;20.12;33.24
61573;BME280;47465;43.094;12.434;2022-09-23T12:17:56;98946.69;;;20.05;33.64
61573;BME280;47465;43.094;12.434;2022-09-23T12:20:44;98942.28;;;20.04;34.15
61573;BME280;47465;43.094;12.434;2022-09-23T12:23:24;98937.53;;;20.07;33.91
61573;BME280;47465;43.094;12.434;2022-09-23T12:26:13;98931.84;;;20.12;32.57
61573;BME280;47465;43.094;12.434;2022-09-23T12:28:53;98946.09;;;20.28;33.65
61573;BME280;47465;43.094;12.434;2022-09-23T12:31:24;98932.34;;;20.04;33.44
61573;BME280;47465;43.094;12.434;2022-09-23T12:33:58;98968.97;;;20.08;35.11
61573;BME280;47465;43.094;12.434;2022-09-23T12:36:34;98926.84;;;19.92;34.90
61573;BME280;47465;43.094;12.434;2022-09-23T12:39:03;98925.41;;;20.00;35.19
61573;BME280;47465;43.094;12.434;2022-09-23T12:41:35;98938.59;;;20.05;35.45
61573;BME280;47465;43.094;12.434;2022-09-23T12:44:25;98937.38;;;20.10;34.61
61573;BME280;47465;43.094;12.434;2022-09-23T12:53:52;98951.03;;;20.22;35.75
61573;BME280;47465;43.094;12.434;2022-09-23T12:56:42;98916.25;;;20.03;34.50
61573;BME280;47465;43.094;12.434;2022-09-23T13:20:02;98906.78;;;20.10;32.53
61573;BME280;47465;43.094;12.434;2022-09-23T13:23:14;98908.63;;;20.09;31.89
61573;BME280;47465;43.094;12.434;2022-09-23T13:29:08;98896.72;;;20.26;32.69
61573;BME280;47465;43.094;12.434;2022-09-23T13:31:50;98883.59;;;20.35;33.30
61573;BME280;47465;43.094;12.434;2022-09-23T13:34:32;98883.22;;;20.26;31.73
61573;BME280;47465;43.094;12.434;2022-09-23T13:37:29;98872.34;;;20.28;32.00
61573;BME280;47465;43.094;12.434;2022-09-23T13:40:21;98889.94;;;20.48;33.23
61573;BME280;47465;43.094;12.434;2022-09-23T13:42:51;98866.25;;;20.39;33.09
61573;BME280;47465;43.094;12.434;2022-09-23T13:45:33;98876.44;;;20.48;33.27
61573;BME280;47465;43.094;12.434;2022-09-23T13:48:07;98886.47;;;20.46;32.41
61573;BME280;47465;43.094;12.434;2022-09-23T13:50:40;98885.03;;;20.40;32.71
61573;BME280;47465;43.094;12.434;2022-09-23T13:53:10;98893.34;;;20.37;32.05
61573;BME280;47465;43.094;12.434;2022-09-23T13:55:40;98863.03;;;20.05;31.47
61573;BME280;47465;43.094;12.434;2022-09-23T13:58:14;98857.41;;;20.08;33.71
61573;BME280;47465;43.094;12.434;2022-09-23T14:00:44;98890.31;;;20.42;35.20
61573;BME280;47465;43.094;12.434;2022-09-23T14:03:20;98863.72;;;20.36;32.93
61573;BME280;47465;43.094;12.434;2022-09-23T14:05:48;98855.09;;;20.16;33.23
61573;BME280;47465;43.094;12.434;2022-09-23T14:08:20;98879.91;;;20.36;32.96
61573;BME280;47465;43.094;12.434;2022-09-23T14:10:46;98861.63;;;20.26;33.70
61573;BME280;47465;43.094;12.434;2022-09-23T14:13:15;98871.63;;;20.39;33.17
61573;BME280;47465;43.094;12.434;2022-09-23T14:15:42;98865.66;;;20.34;34.00
61573;BME280;47465;43.094;12.434;2022-09-23T14:18:16;98856.00;;;20.29;33.18
61573;BME280;47465;43.094;12.434;2022-09-23T14:20:48;98839.25;;;20.24;32.68
61573;BME280;47465;43.094;12.434;2022-09-23T14:23:21;98839.34;;;20.23;32.94
61573;BME280;47465;43.094;12.434;2022-09-23T14:25:50;98840.28;;;20.36;33.31
61573;BME280;47465;43.094;12.434;2022-09-23T14:28:18;98855.50;;;20.51;32.64
61573;BME280;47465;43.094;12.434;2022-09-23T14:30:52;98867.34;;;20.49;31.96
61573;BME280;47465;43.094;12.434;2022-09-23T14:33:22;98859.66;;;20.43;32.24